Terminal Aerodrome Forecast
Issued by NWS Charleston, WV

Home | Current Version | Previous Version | Text Only | Print | Product List | Glossary On
Versions: 1 2 3 4 5 6 7 8 9 10 11 12 13 14 15 16 17 18 19 20 21 22 23 24
000
FTUS41 KRLX 011100
TAFEKN
TAF
KEKN 011120Z 0112/0212 00000KT 1/2SM FG BKN002 BKN100
      TEMPO 0112/0113 3SM BR SCT003 BKN100
     FM011300 00000KT 4SM BR SCT004 BKN070
     FM011400 00000KT 6SM BR HZ BKN070
     FM011700 17004KT P6SM OVC050
     FM012000 17004KT P6SM SHRA OVC050
     FM012200 VRB03KT P6SM OVC050
     FM020200 00000KT 5SM BR BKN045
     FM020600 00000KT 3/4SM BR BKN001
     FM020700 00000KT 1/4SM FG BKN001=

USA.gov is the U.S. government's official web portal to all federal, state and local government web resources and services.